createdAt,value
2023-01-31T00:00:03.352Z,4.50
2023-01-31T00:02:32.486Z,4.50
2023-01-31T00:05:01.103Z,4.60
2023-01-31T00:07:29.151Z,4.60
2023-01-31T00:09:58.645Z,4.60
2023-01-31T00:12:26.716Z,4.50
2023-01-31T00:14:54.781Z,4.50
2023-01-31T00:17:22.790Z,4.50
2023-01-31T00:19:51.020Z,4.50
2023-01-31T00:22:19.032Z,4.50
2023-01-31T00:24:47.077Z,4.50
2023-01-31T00:27:16.483Z,4.50
2023-01-31T00:29:44.584Z,4.50
2023-01-31T00:32:12.647Z,4.50
2023-01-31T00:34:40.729Z,4.50
2023-01-31T00:37:08.779Z,4.50
2023-01-31T00:39:37.016Z,4.50
2023-01-31T00:44:59.752Z,4.50
2023-01-31T00:47:27.807Z,4.40
2023-01-31T00:49:55.874Z,4.40
2023-01-31T00:52:23.997Z,4.40
2023-01-31T00:54:52.067Z,4.30
2023-01-31T00:57:20.120Z,4.30
2023-01-31T00:59:48.214Z,4.30
2023-01-31T01:02:17.732Z,4.30
2023-01-31T01:04:45.848Z,4.30
2023-01-31T01:07:13.956Z,4.30
2023-01-31T01:09:42.034Z,4.30
2023-01-31T01:12:10.075Z,4.30
2023-01-31T01:14:38.115Z,4.30
2023-01-31T01:17:06.189Z,4.30
2023-01-31T01:19:35.984Z,4.20
2023-01-31T01:22:04.798Z,4.20
2023-01-31T01:24:32.996Z,4.20
2023-01-31T01:27:01.011Z,4.20
2023-01-31T01:29:29.111Z,4.20
2023-01-31T01:31:57.294Z,4.30
2023-01-31T01:34:25.352Z,4.30
2023-01-31T01:36:54.769Z,4.30
2023-01-31T01:39:23.187Z,4.30
2023-01-31T01:41:51.631Z,4.30
2023-01-31T01:44:49.569Z,4.30
2023-01-31T01:47:23.345Z,4.30
2023-01-31T01:49:55.259Z,4.30
2023-01-31T01:52:25.475Z,4.20
2023-01-31T01:54:57.110Z,4.30
2023-01-31T01:57:32.557Z,4.30
2023-01-31T02:00:09.658Z,4.30
2023-01-31T02:02:38.446Z,4.30
2023-01-31T02:05:09.589Z,4.30
2023-01-31T02:07:39.601Z,4.30
2023-01-31T02:10:15.499Z,4.30
2023-01-31T02:12:43.620Z,4.30
2023-01-31T02:15:12.272Z,4.30
2023-01-31T02:17:40.383Z,4.30
2023-01-31T02:20:25.627Z,4.30
2023-01-31T02:23:14.616Z,4.30
2023-01-31T02:26:15.863Z,4.30
2023-01-31T02:29:12.482Z,4.20
2023-01-31T02:32:00.102Z,4.20
2023-01-31T02:34:37.345Z,4.10
2023-01-31T02:37:18.137Z,4.00
2023-01-31T02:39:57.681Z,4.00
2023-01-31T02:42:33.463Z,3.90
2023-01-31T02:45:09.159Z,3.80
2023-01-31T02:47:50.732Z,3.80
2023-01-31T02:50:28.249Z,3.70
2023-01-31T02:53:00.527Z,3.70
2023-01-31T02:55:56.586Z,3.60
2023-01-31T02:58:29.053Z,3.60
2023-01-31T03:00:59.802Z,3.50
2023-01-31T03:03:31.218Z,3.50
2023-01-31T03:06:28.973Z,3.50
2023-01-31T03:09:05.726Z,3.40
2023-01-31T03:11:40.219Z,3.40
2023-01-31T03:14:19.334Z,3.30
2023-01-31T03:17:13.741Z,3.30
2023-01-31T03:19:50.382Z,3.30
2023-01-31T03:22:24.174Z,3.30
2023-01-31T03:24:54.594Z,3.30
2023-01-31T03:27:23.577Z,3.30
2023-01-31T03:29:53.820Z,3.20
2023-01-31T03:32:27.563Z,3.20
2023-01-31T03:34:56.186Z,3.20
2023-01-31T03:37:37.497Z,3.20
2023-01-31T03:40:11.950Z,3.10
2023-01-31T03:42:47.108Z,3.10
2023-01-31T03:45:21.269Z,3.10
2023-01-31T03:47:52.125Z,3.00
2023-01-31T03:50:25.796Z,3.00
2023-01-31T03:52:59.595Z,3.00
2023-01-31T03:55:35.947Z,2.90
2023-01-31T03:58:05.718Z,2.90
2023-01-31T04:00:37.858Z,2.90
2023-01-31T04:03:11.864Z,2.80
2023-01-31T04:05:40.915Z,2.80
2023-01-31T04:08:09.518Z,2.80
2023-01-31T04:10:38.991Z,2.90
2023-01-31T04:13:07.062Z,2.90
2023-01-31T04:15:35.236Z,2.90
2023-01-31T04:18:03.238Z,2.90
2023-01-31T04:20:31.349Z,2.90
2023-01-31T04:22:59.967Z,2.90
2023-01-31T04:25:28.359Z,3.00
2023-01-31T04:27:57.881Z,3.00
2023-01-31T04:30:25.980Z,3.00
2023-01-31T04:32:54.094Z,3.10
2023-01-31T04:35:22.400Z,3.00
2023-01-31T04:37:50.663Z,3.10
2023-01-31T04:40:19.372Z,3.10
2023-01-31T04:42:47.393Z,3.10
2023-01-31T04:45:16.985Z,3.10
2023-01-31T04:47:45.018Z,3.10
2023-01-31T04:50:13.074Z,3.10
2023-01-31T04:52:41.120Z,3.10
2023-01-31T04:55:10.078Z,3.10
2023-01-31T04:57:38.122Z,3.10
2023-01-31T05:00:07.597Z,3.10
2023-01-31T05:02:37.099Z,3.20
2023-01-31T05:05:05.817Z,3.20
2023-01-31T05:07:33.974Z,3.20
2023-01-31T05:10:01.989Z,3.20
2023-01-31T05:12:31.619Z,3.30
2023-01-31T05:14:59.720Z,3.30
2023-01-31T05:17:29.965Z,3.30
2023-01-31T05:19:59.629Z,3.40
2023-01-31T05:22:27.681Z,3.40
2023-01-31T05:24:57.623Z,3.40
2023-01-31T05:27:27.341Z,3.50
2023-01-31T05:29:55.547Z,3.50
2023-01-31T05:32:23.660Z,3.60
2023-01-31T05:34:51.811Z,3.60
2023-01-31T05:37:21.357Z,3.70
2023-01-31T05:39:49.475Z,3.70
2023-01-31T05:42:17.508Z,3.70
2023-01-31T05:44:45.590Z,3.80
2023-01-31T05:47:13.681Z,3.80
2023-01-31T05:49:41.811Z,3.80
2023-01-31T05:52:09.886Z,3.80
2023-01-31T05:54:39.309Z,3.90
2023-01-31T05:57:07.646Z,3.90
2023-01-31T05:59:35.649Z,4.00
2023-01-31T06:02:03.791Z,4.00
2023-01-31T06:04:32.137Z,4.10
2023-01-31T06:07:00.440Z,4.10
2023-01-31T06:09:29.594Z,4.20
2023-01-31T06:11:59.842Z,4.20
2023-01-31T06:14:28.171Z,4.30
2023-01-31T06:16:56.222Z,4.40
2023-01-31T06:19:25.413Z,4.40
2023-01-31T06:21:53.518Z,4.40
2023-01-31T06:24:21.710Z,4.40
2023-01-31T06:26:50.065Z,4.40
2023-01-31T06:29:19.496Z,4.40
2023-01-31T06:31:47.571Z,4.40
2023-01-31T06:34:15.643Z,4.40
2023-01-31T06:36:43.672Z,4.40
2023-01-31T06:39:12.692Z,4.40
2023-01-31T06:41:41.253Z,4.50
2023-01-31T06:44:10.359Z,4.50
2023-01-31T06:46:39.838Z,4.50
2023-01-31T06:49:07.876Z,4.50
2023-01-31T06:51:35.923Z,4.50
2023-01-31T06:54:04.117Z,4.50
2023-01-31T06:56:32.661Z,4.50
2023-01-31T06:59:00.829Z,4.50
2023-01-31T07:01:28.969Z,4.60
2023-01-31T07:03:58.362Z,4.60
2023-01-31T07:06:26.412Z,4.60
2023-01-31T07:08:54.647Z,4.60
2023-01-31T07:11:22.729Z,4.60
2023-01-31T07:13:50.843Z,4.60
2023-01-31T07:16:19.755Z,4.70
2023-01-31T07:18:47.987Z,4.70
2023-01-31T07:21:17.392Z,4.60
2023-01-31T07:23:45.653Z,4.60
2023-01-31T07:26:13.965Z,4.60
2023-01-31T07:28:42.109Z,4.60
2023-01-31T07:31:13.956Z,4.60
2023-01-31T07:33:42.752Z,4.70
2023-01-31T07:36:14.386Z,4.70
2023-01-31T07:38:44.057Z,4.60
2023-01-31T07:41:12.770Z,4.60
2023-01-31T07:43:40.935Z,4.60
2023-01-31T07:46:11.259Z,4.70
2023-01-31T07:48:39.943Z,4.60
2023-01-31T07:51:08.585Z,4.60
2023-01-31T07:53:41.937Z,4.70
2023-01-31T07:56:14.329Z,4.70
2023-01-31T07:58:44.007Z,4.70
2023-01-31T08:01:32.948Z,4.70
2023-01-31T08:04:18.221Z,4.70
2023-01-31T08:06:49.212Z,4.70
2023-01-31T08:09:17.324Z,4.80
2023-01-31T08:11:47.244Z,4.80
2023-01-31T08:14:15.407Z,4.80
2023-01-31T08:16:43.507Z,4.80
2023-01-31T08:19:11.604Z,4.90
2023-01-31T08:21:39.683Z,4.90
2023-01-31T08:24:08.433Z,4.90
2023-01-31T08:26:36.702Z,4.90
2023-01-31T08:29:06.196Z,4.90
2023-01-31T08:31:34.285Z,4.90
2023-01-31T08:34:03.242Z,4.90
2023-01-31T08:36:32.980Z,5.00
2023-01-31T08:39:01.747Z,5.00
2023-01-31T08:41:31.508Z,5.00
2023-01-31T08:44:00.420Z,5.00
2023-01-31T08:46:32.926Z,5.00
2023-01-31T08:49:02.020Z,5.00
2023-01-31T08:51:30.334Z,5.00
2023-01-31T08:53:58.452Z,4.90
2023-01-31T08:56:27.849Z,4.90
2023-01-31T08:58:56.435Z,4.80
2023-01-31T09:01:24.777Z,4.90
2023-01-31T09:03:57.230Z,4.90
2023-01-31T09:06:27.365Z,4.90
2023-01-31T09:08:57.657Z,4.80
2023-01-31T09:11:27.962Z,4.80
2023-01-31T09:13:55.967Z,4.80
2023-01-31T09:16:24.203Z,4.80
2023-01-31T09:18:56.008Z,4.80
2023-01-31T09:21:24.922Z,4.70
2023-01-31T09:23:57.549Z,4.60
2023-01-31T09:26:25.967Z,4.60
2023-01-31T09:28:53.999Z,4.60
2023-01-31T09:31:22.849Z,4.60
2023-01-31T09:33:50.911Z,4.50
2023-01-31T09:36:21.816Z,4.50
2023-01-31T09:38:54.393Z,4.50
2023-01-31T09:41:29.921Z,4.50
2023-01-31T09:44:00.906Z,4.50
2023-01-31T09:46:33.735Z,4.50
2023-01-31T09:49:06.164Z,4.50
2023-01-31T09:51:36.792Z,4.50
2023-01-31T09:54:15.598Z,4.50
2023-01-31T09:56:52.541Z,4.50
2023-01-31T09:59:26.522Z,4.50
2023-01-31T10:02:04.294Z,4.50
2023-01-31T10:04:45.925Z,4.50
2023-01-31T10:07:21.332Z,4.50
2023-01-31T10:09:55.080Z,4.50
2023-01-31T10:12:27.981Z,4.50
2023-01-31T10:15:01.176Z,4.60
2023-01-31T10:17:34.056Z,4.60
2023-01-31T10:20:08.155Z,4.60
2023-01-31T10:22:43.081Z,4.60
2023-01-31T10:25:24.973Z,4.60
2023-01-31T10:27:57.357Z,4.60
2023-01-31T10:30:30.297Z,4.70
2023-01-31T10:33:04.733Z,4.70
2023-01-31T10:35:40.639Z,4.70
2023-01-31T10:38:18.640Z,4.80
2023-01-31T10:40:51.191Z,4.80
2023-01-31T10:43:23.708Z,4.80
2023-01-31T10:45:51.826Z,4.80
2023-01-31T10:48:22.076Z,4.80
2023-01-31T10:51:01.191Z,4.80
2023-01-31T10:53:54.645Z,4.80
2023-01-31T10:56:29.937Z,4.90
2023-01-31T10:59:00.171Z,4.90
2023-01-31T11:01:28.937Z,4.90
2023-01-31T11:03:58.338Z,4.90
2023-01-31T11:06:26.517Z,4.90
2023-01-31T11:09:00.129Z,4.90
2023-01-31T11:11:30.615Z,5.00
2023-01-31T11:14:01.416Z,4.90
2023-01-31T11:16:32.173Z,5.00
2023-01-31T11:19:02.366Z,5.00
2023-01-31T11:21:32.892Z,5.00
2023-01-31T11:24:05.863Z,5.00
2023-01-31T11:26:36.683Z,5.00
2023-01-31T11:29:11.644Z,5.00
2023-01-31T11:31:45.555Z,5.00
2023-01-31T11:34:22.450Z,5.00
2023-01-31T11:36:50.739Z,5.00
2023-01-31T11:39:32.600Z,5.00
2023-01-31T11:42:07.686Z,5.00
2023-01-31T11:44:35.723Z,5.10
2023-01-31T11:47:06.011Z,5.00
2023-01-31T11:49:36.473Z,5.10
2023-01-31T11:52:15.072Z,5.10
2023-01-31T11:54:48.155Z,5.10
2023-01-31T11:57:17.385Z,5.20
2023-01-31T11:59:45.518Z,5.20
2023-01-31T12:02:31.438Z,5.20
2023-01-31T12:05:00.568Z,5.20
2023-01-31T12:07:33.412Z,5.20
2023-01-31T12:10:03.230Z,5.20
2023-01-31T12:12:35.038Z,5.20
2023-01-31T12:15:04.866Z,5.20
2023-01-31T12:17:46.706Z,5.20
2023-01-31T12:20:28.800Z,5.20
2023-01-31T12:23:05.516Z,5.20
2023-01-31T12:25:57.617Z,5.20
2023-01-31T12:28:34.962Z,5.20
2023-01-31T12:31:23.734Z,5.20
2023-01-31T12:34:18.860Z,5.20
2023-01-31T12:37:04.656Z,5.30
2023-01-31T12:39:55.512Z,5.30
2023-01-31T12:42:38.783Z,5.30
2023-01-31T12:45:22.396Z,5.30
2023-01-31T12:48:20.574Z,5.30
2023-01-31T12:50:53.178Z,5.20
2023-01-31T12:53:44.353Z,5.20
2023-01-31T12:56:26.784Z,5.20
2023-01-31T12:59:15.346Z,5.20
2023-01-31T13:01:50.736Z,5.20
2023-01-31T13:04:38.534Z,5.20
2023-01-31T13:07:12.619Z,5.20
2023-01-31T13:09:41.082Z,5.10
2023-01-31T13:12:14.450Z,5.10
2023-01-31T13:14:48.068Z,5.10
2023-01-31T13:17:19.570Z,5.20
2023-01-31T13:19:50.463Z,5.20
2023-01-31T13:22:23.783Z,5.20
2023-01-31T13:24:58.638Z,5.20
2023-01-31T13:27:31.388Z,5.20
2023-01-31T13:30:05.044Z,5.20
2023-01-31T13:32:39.566Z,5.30
2023-01-31T13:35:19.435Z,5.30
2023-01-31T13:37:54.264Z,5.30
2023-01-31T13:40:24.487Z,5.40
2023-01-31T13:42:53.421Z,5.40
2023-01-31T13:45:27.955Z,5.40
2023-01-31T13:48:02.039Z,5.40
2023-01-31T13:50:38.815Z,5.40
2023-01-31T13:53:12.542Z,5.50
2023-01-31T13:55:43.480Z,5.50
2023-01-31T13:58:19.947Z,5.50
2023-01-31T14:00:59.004Z,5.50
2023-01-31T14:03:28.037Z,5.60
2023-01-31T14:05:58.649Z,5.60
2023-01-31T14:08:39.864Z,5.60
2023-01-31T14:11:36.729Z,5.60
2023-01-31T14:14:21.826Z,5.70
2023-01-31T14:16:53.017Z,5.70
2023-01-31T14:20:03.260Z,5.70
2023-01-31T14:22:35.338Z,5.70
2023-01-31T14:25:12.511Z,5.70
2023-01-31T14:28:04.171Z,5.80
2023-01-31T14:30:47.704Z,5.80
2023-01-31T14:33:24.333Z,5.80
2023-01-31T14:36:34.091Z,5.80
2023-01-31T14:39:41.171Z,5.80
2023-01-31T14:42:43.584Z,5.80
2023-01-31T14:45:33.864Z,5.90
2023-01-31T14:48:18.695Z,5.90
2023-01-31T14:51:03.693Z,5.90
2023-01-31T14:53:56.892Z,5.90
2023-01-31T14:56:38.918Z,6.00
2023-01-31T14:59:24.399Z,6.00
2023-01-31T15:01:52.923Z,6.00
2023-01-31T15:04:22.337Z,6.00
2023-01-31T15:06:53.705Z,6.10
2023-01-31T15:09:40.135Z,6.10
2023-01-31T15:12:38.111Z,6.20
2023-01-31T15:15:21.229Z,6.20
2023-01-31T15:17:49.745Z,6.20
2023-01-31T15:20:21.022Z,6.30
2023-01-31T15:22:51.634Z,6.30
2023-01-31T15:25:29.242Z,6.30
2023-01-31T15:27:58.483Z,6.40
2023-01-31T15:30:30.047Z,6.40
2023-01-31T15:33:01.780Z,6.40
2023-01-31T15:35:32.939Z,6.50
2023-01-31T15:38:08.025Z,6.40
2023-01-31T15:40:36.214Z,6.40
2023-01-31T15:43:17.674Z,6.40
2023-01-31T15:45:47.742Z,6.50
2023-01-31T15:48:17.607Z,6.50
2023-01-31T15:50:54.362Z,6.50
2023-01-31T15:53:26.444Z,6.60
2023-01-31T15:55:58.469Z,6.60
2023-01-31T15:58:29.859Z,6.60
2023-01-31T16:01:01.172Z,6.50
2023-01-31T16:03:33.192Z,6.50
2023-01-31T16:06:02.488Z,6.60
2023-01-31T16:08:35.079Z,6.60
2023-01-31T16:11:05.673Z,6.60
2023-01-31T16:13:36.964Z,6.60
2023-01-31T16:16:06.937Z,6.60
2023-01-31T16:18:37.600Z,6.70
2023-01-31T16:21:16.547Z,6.70
2023-01-31T16:23:46.183Z,6.70
2023-01-31T16:26:21.569Z,6.70
2023-01-31T16:28:54.774Z,6.70
2023-01-31T16:31:25.597Z,6.60
2023-01-31T16:33:57.504Z,6.60
2023-01-31T16:36:31.115Z,6.60
2023-01-31T16:39:03.961Z,6.60
2023-01-31T16:41:43.846Z,6.60
2023-01-31T16:44:18.924Z,6.60
2023-01-31T16:46:49.270Z,6.70
2023-01-31T16:49:25.240Z,6.70
2023-01-31T16:51:58.607Z,6.70
2023-01-31T16:54:31.754Z,6.70
2023-01-31T16:57:21.398Z,6.70
2023-01-31T16:59:52.699Z,6.70
2023-01-31T17:02:25.855Z,6.70
2023-01-31T17:04:57.931Z,6.70
2023-01-31T17:07:30.283Z,6.70
2023-01-31T17:10:02.072Z,6.60
2023-01-31T17:12:32.044Z,6.70
2023-01-31T17:15:03.293Z,6.70
2023-01-31T17:17:34.586Z,6.70
2023-01-31T17:20:02.991Z,6.80
2023-01-31T17:22:31.290Z,6.80
2023-01-31T17:25:01.641Z,6.90
2023-01-31T17:27:29.692Z,6.80
2023-01-31T17:29:58.036Z,6.90
2023-01-31T17:32:26.249Z,6.90
2023-01-31T17:34:54.996Z,6.90
2023-01-31T17:37:31.629Z,6.90
2023-01-31T17:40:02.625Z,6.90
2023-01-31T17:42:30.700Z,6.80
2023-01-31T17:44:58.784Z,6.90
2023-01-31T17:47:27.976Z,6.90
2023-01-31T17:49:57.520Z,6.90
2023-01-31T17:52:26.283Z,6.90
2023-01-31T17:54:54.443Z,6.90
2023-01-31T17:57:24.453Z,7.00
2023-01-31T17:59:53.559Z,7.00
2023-01-31T18:02:22.022Z,7.00
2023-01-31T18:04:50.060Z,7.00
2023-01-31T18:07:18.405Z,7.00
2023-01-31T18:09:46.825Z,7.00
2023-01-31T18:12:16.017Z,7.00
2023-01-31T18:14:47.069Z,7.00
2023-01-31T18:17:15.434Z,6.90
2023-01-31T18:19:43.711Z,6.90
2023-01-31T18:22:11.828Z,6.90
2023-01-31T18:24:40.718Z,6.90
2023-01-31T18:27:08.800Z,6.80
2023-01-31T18:29:37.283Z,6.70
2023-01-31T18:32:09.331Z,6.80
2023-01-31T18:34:40.577Z,6.70
2023-01-31T18:37:13.325Z,6.70
2023-01-31T18:39:41.909Z,6.70
2023-01-31T18:42:13.614Z,6.60
2023-01-31T18:44:42.457Z,6.50
2023-01-31T18:47:12.543Z,6.50
2023-01-31T18:49:41.598Z,6.50
2023-01-31T18:52:10.172Z,6.50
2023-01-31T18:54:39.552Z,6.50
2023-01-31T18:57:08.381Z,6.60
2023-01-31T18:59:37.009Z,6.50
2023-01-31T19:02:05.359Z,6.50
2023-01-31T19:04:34.951Z,6.50
2023-01-31T19:07:07.545Z,6.50
2023-01-31T19:09:38.570Z,6.40
2023-01-31T19:12:07.617Z,6.50
2023-01-31T19:14:39.048Z,6.50
2023-01-31T19:17:07.506Z,6.50
2023-01-31T19:19:37.704Z,6.50
2023-01-31T19:22:07.491Z,6.40
2023-01-31T19:24:36.343Z,6.40
2023-01-31T19:27:04.724Z,6.50
2023-01-31T19:29:32.900Z,6.40
2023-01-31T19:32:00.944Z,6.40
2023-01-31T19:34:29.872Z,6.30
2023-01-31T19:36:59.472Z,6.30
2023-01-31T19:39:31.002Z,6.30
2023-01-31T19:41:59.370Z,6.30
2023-01-31T19:44:27.983Z,6.20
2023-01-31T19:46:56.718Z,6.20
2023-01-31T19:49:29.382Z,6.20
2023-01-31T19:51:58.938Z,6.10
2023-01-31T19:54:28.129Z,6.10
2023-01-31T19:56:57.047Z,6.10
2023-01-31T19:59:28.434Z,6.10
2023-01-31T20:01:57.470Z,6.10
2023-01-31T20:04:26.189Z,6.10
2023-01-31T20:06:55.176Z,6.00
2023-01-31T20:09:25.205Z,5.90
2023-01-31T20:11:54.252Z,5.90
2023-01-31T20:14:22.929Z,6.00
2023-01-31T20:16:51.645Z,6.00
2023-01-31T20:19:22.588Z,5.90
2023-01-31T20:21:51.569Z,5.90
2023-01-31T20:24:20.683Z,5.90
2023-01-31T20:26:50.206Z,5.90
2023-01-31T20:29:18.333Z,5.90
2023-01-31T20:31:48.650Z,5.80
2023-01-31T20:34:17.389Z,5.80
2023-01-31T20:36:45.542Z,5.70
2023-01-31T20:39:14.730Z,5.70
2023-01-31T20:41:47.630Z,5.70
2023-01-31T20:44:17.649Z,5.70
2023-01-31T20:46:45.723Z,5.60
2023-01-31T20:49:14.648Z,5.60
2023-01-31T20:51:42.775Z,5.50
2023-01-31T20:54:11.361Z,5.50
2023-01-31T20:56:40.158Z,5.50
2023-01-31T20:59:08.784Z,5.50
2023-01-31T21:01:38.459Z,5.50
2023-01-31T21:04:07.981Z,5.50
2023-01-31T21:06:36.153Z,5.50
2023-01-31T21:09:04.342Z,5.50
2023-01-31T21:11:32.530Z,5.40
2023-01-31T21:14:01.398Z,5.40
2023-01-31T21:16:29.400Z,5.40
2023-01-31T21:18:59.451Z,5.30
2023-01-31T21:21:27.666Z,5.30
2023-01-31T21:23:58.056Z,5.30
2023-01-31T21:26:27.233Z,5.30
2023-01-31T21:28:55.554Z,5.30
2023-01-31T21:31:23.839Z,5.30
2023-01-31T21:33:53.502Z,5.30
2023-01-31T21:36:24.295Z,5.30
2023-01-31T21:38:52.751Z,5.20
2023-01-31T21:41:38.463Z,5.20
2023-01-31T21:44:07.017Z,5.30
2023-01-31T21:46:35.929Z,5.20
2023-01-31T21:49:04.418Z,5.20
2023-01-31T21:51:35.469Z,5.20
2023-01-31T21:54:03.655Z,5.10
2023-01-31T21:56:31.896Z,5.10
2023-01-31T21:59:00.399Z,5.10
2023-01-31T22:01:30.513Z,5.00
2023-01-31T22:03:59.454Z,5.00
2023-01-31T22:06:31.520Z,5.00
2023-01-31T22:09:03.019Z,5.00
2023-01-31T22:11:33.146Z,5.00
2023-01-31T22:14:02.939Z,5.00
2023-01-31T22:16:31.416Z,4.90
2023-01-31T22:19:00.819Z,4.90
2023-01-31T22:21:30.293Z,5.00
2023-01-31T22:24:01.481Z,4.90
2023-01-31T22:26:31.108Z,4.90
2023-01-31T22:29:01.284Z,4.90
2023-01-31T22:31:30.478Z,4.80
2023-01-31T22:34:00.114Z,4.80
2023-01-31T22:36:28.646Z,4.80
2023-01-31T22:38:56.818Z,4.70
2023-01-31T22:41:26.475Z,4.70
2023-01-31T22:43:55.029Z,4.70
2023-01-31T22:46:24.536Z,4.70
2023-01-31T22:48:53.395Z,4.60
2023-01-31T22:51:23.044Z,4.70
2023-01-31T22:53:51.478Z,4.70
2023-01-31T22:56:21.578Z,4.70
2023-01-31T22:58:56.027Z,4.70
2023-01-31T23:01:26.243Z,4.70
2023-01-31T23:03:57.931Z,4.70
2023-01-31T23:06:26.672Z,4.70
2023-01-31T23:08:55.135Z,4.70
2023-01-31T23:11:23.763Z,4.70
2023-01-31T23:13:53.400Z,4.70
2023-01-31T23:16:42.986Z,4.70
2023-01-31T23:19:11.410Z,4.70
2023-01-31T23:21:42.759Z,4.60
2023-01-31T23:24:11.589Z,4.70
2023-01-31T23:26:39.922Z,4.70
2023-01-31T23:29:09.600Z,4.70
2023-01-31T23:31:38.664Z,4.70
2023-01-31T23:34:09.339Z,4.80
2023-01-31T23:36:38.657Z,4.70
2023-01-31T23:39:06.955Z,4.70
2023-01-31T23:41:35.224Z,4.60
2023-01-31T23:44:03.701Z,4.60
2023-01-31T23:46:33.279Z,4.60
2023-01-31T23:49:02.439Z,4.60
2023-01-31T23:51:31.328Z,4.50
2023-01-31T23:53:59.515Z,4.60
2023-01-31T23:56:27.703Z,4.60
2023-01-31T23:58:55.912Z,4.60
